Time;durP1;ratioP1;P1;durP2;ratioP2;P2;SDS_P1;SDS_P2;PMS_P1;PMS_P2;Temp;Humidity;BMP_temperature;BMP_pressure;BME280_temperature;BME280_humidity;BME280_pressure;Samples;Min_cycle;Max_cycle;Signal;HPM_P1;HPM_P2
2022/09/05 00:02:28;;;;;;;4.93;2.78;;;;;;;17.49;63.61;99529.53;5265119;28;19927;-72
2022/09/05 00:05:43;;;;;;;5.07;2.95;;;;;;;17.66;63.83;99541.00;5263387;28;20445;-72
2022/09/05 00:09:16;;;;;;;4.05;2.90;;;;;;;17.49;63.37;99540.25;5265412;28;20057;-73
2022/09/05 00:12:11;;;;;;;4.90;2.58;;;;;;;17.35;64.03;99520.34;5265218;28;20712;-72
2022/09/05 00:15:04;;;;;;;4.30;3.00;;;;;;;17.65;64.34;99531.28;5259461;28;20055;-73
2022/09/05 00:18:33;;;;;;;8.82;3.00;;;;;;;17.58;64.30;99531.13;5254940;28;20516;-72
2022/09/05 00:21:57;;;;;;;4.38;3.03;;;;;;;17.64;64.14;99532.28;5266016;28;20044;-72
2022/09/05 00:25:48;;;;;;;3.58;2.67;;;;;;;17.44;63.97;99534.56;5265255;28;20055;-72
2022/09/05 00:29:05;;;;;;;5.35;2.92;;;;;;;17.37;63.88;99532.59;5261592;28;20055;-74
2022/09/05 00:32:24;;;;;;;7.03;2.72;;;;;;;17.47;63.74;99537.75;5247332;28;20052;-72
2022/09/05 00:35:34;;;;;;;3.92;2.60;;;;;;;17.16;64.37;99534.19;5267296;28;20044;-72
2022/09/05 00:38:27;;;;;;;3.80;2.65;;;;;;;17.15;64.86;99536.03;5269826;28;20422;-72
2022/09/05 00:41:27;;;;;;;3.15;2.67;;;;;;;17.32;64.74;99518.06;5263927;28;20064;-73
2022/09/05 00:44:25;;;;;;;6.80;3.25;;;;;;;17.33;64.67;99520.56;5269248;28;20055;-73
2022/09/05 00:47:32;;;;;;;3.93;2.60;;;;;;;17.24;64.72;99531.47;5266250;28;20060;-73
2022/09/05 00:50:36;;;;;;;4.45;2.92;;;;;;;17.25;64.58;99533.13;5263401;28;20843;-71
2022/09/05 00:53:55;;;;;;;6.35;3.20;;;;;;;17.13;64.48;99525.50;5264272;28;20049;-72
2022/09/05 00:57:06;;;;;;;4.30;3.20;;;;;;;17.13;64.74;99522.81;5260357;28;20055;-71
2022/09/05 01:00:09;;;;;;;4.00;3.08;;;;;;;17.05;64.99;99513.94;5263716;28;20436;-74
2022/09/05 01:03:41;;;;;;;3.17;2.80;;;;;;;17.03;64.44;99524.03;5261975;28;20500;-73
2022/09/05 01:06:57;;;;;;;5.00;3.30;;;;;;;17.09;64.77;99518.81;5264656;28;20055;-72
2022/09/05 01:10:06;;;;;;;3.70;3.30;;;;;;;17.08;65.59;99527.00;5267674;28;20133;-72
2022/09/05 01:13:13;;;;;;;5.53;3.60;;;;;;;16.96;65.30;99529.22;5263941;28;20055;-73
2022/09/05 01:16:26;;;;;;;4.28;3.40;;;;;;;16.98;65.35;99521.84;5262767;28;20073;-71
2022/09/05 01:19:29;;;;;;;3.55;3.22;;;;;;;16.96;64.69;99528.41;5268071;28;20047;-71
2022/09/05 01:22:48;;;;;;;4.57;3.55;;;;;;;16.88;65.03;99526.56;5258310;28;20055;-71
2022/09/05 01:26:15;;;;;;;5.63;3.22;;;;;;;16.99;65.99;99523.53;5265586;28;20153;-74
2022/09/05 01:29:45;;;;;;;4.10;3.03;;;;;;;17.04;66.45;99526.50;5260096;28;20109;-71
2022/09/05 01:33:22;;;;;;;6.50;3.80;;;;;;;17.19;66.45;99518.59;5265579;28;20055;-72
2022/09/05 01:36:38;;;;;;;6.82;3.75;;;;;;;17.10;66.53;99506.25;5261891;28;20052;-73
2022/09/05 01:39:57;;;;;;;6.57;3.45;;;;;;;17.31;66.38;99511.84;5262890;28;20051;-71
2022/09/05 01:43:56;;;;;;;6.45;3.88;;;;;;;17.33;66.03;99507.16;5264734;28;20199;-72
2022/09/05 01:46:58;;;;;;;5.70;3.60;;;;;;;17.30;65.35;99512.84;5192093;28;20152;-73
2022/09/05 01:50:14;;;;;;;6.40;4.43;;;;;;;17.28;65.30;99501.47;5196431;28;20072;-73
2022/09/05 01:53:32;;;;;;;6.57;3.90;;;;;;;17.15;65.47;99493.16;5261048;28;20298;-74
2022/09/05 01:56:33;;;;;;;8.82;3.97;;;;;;;17.02;65.80;99500.91;5264479;28;20106;-72
2022/09/05 01:59:41;;;;;;;4.63;3.25;;;;;;;16.99;65.52;99501.28;5262327;28;20044;-72
2022/09/05 02:02:50;;;;;;;6.88;3.90;;;;;;;16.85;65.61;99497.44;5262068;28;20050;-73
2022/09/05 02:05:53;;;;;;;5.80;3.60;;;;;;;16.89;65.38;99504.97;5248200;28;20405;-71
2022/09/05 02:09:35;;;;;;;5.20;3.72;;;;;;;16.87;65.96;99504.31;5264790;28;20533;-71
2022/09/05 02:12:39;;;;;;;6.32;3.70;;;;;;;16.88;65.38;99505.13;5172478;28;20220;-71
2022/09/05 02:15:40;;;;;;;4.18;3.42;;;;;;;16.76;65.22;99506.53;5265627;28;20044;-72
2022/09/05 02:19:07;;;;;;;4.07;3.60;;;;;;;16.68;66.42;99497.44;5264086;28;20443;-73
2022/09/05 02:22:16;;;;;;;7.28;3.50;;;;;;;16.83;65.93;99486.91;5264363;28;20055;-73
2022/09/05 02:25:15;;;;;;;5.07;3.55;;;;;;;16.80;66.72;99495.28;5263730;28;20048;-74
2022/09/05 02:28:44;;;;;;;4.38;3.50;;;;;;;16.81;65.81;99496.94;5258453;28;20100;-72
2022/09/05 02:31:50;;;;;;;5.70;3.78;;;;;;;16.83;66.57;99502.97;5261155;28;20509;-73
2022/09/05 02:34:55;;;;;;;5.68;3.40;;;;;;;16.71;65.98;99490.91;5259607;28;20097;-73
2022/09/05 02:37:53;;;;;;;4.45;3.53;;;;;;;16.70;65.91;99494.63;5262635;28;20047;-72
2022/09/05 02:41:31;;;;;;;4.18;3.35;;;;;;;16.59;65.39;99492.31;5260154;28;20608;-72
2022/09/05 02:45:04;;;;;;;9.13;3.83;;;;;;;16.69;66.94;99492.97;5252468;28;20048;-71
2022/09/05 02:48:52;;;;;;;5.63;3.75;;;;;;;16.73;67.04;99488.91;5263284;28;20046;-74
2022/09/05 02:52:06;;;;;;;7.53;3.75;;;;;;;16.71;66.05;99487.41;5264896;28;20055;-72
2022/09/05 02:55:23;;;;;;;6.85;3.78;;;;;;;16.59;66.46;99489.63;5268364;28;20133;-71
2022/09/05 02:58:48;;;;;;;5.20;3.45;;;;;;;16.35;66.82;99485.13;5248828;28;20125;-72
2022/09/05 03:02:24;;;;;;;6.43;3.30;;;;;;;16.37;66.68;99497.34;5257308;28;20051;-71
2022/09/05 03:05:25;;;;;;;5.20;3.28;;;;;;;16.36;65.78;99495.69;5247380;28;20059;-75
2022/09/05 03:08:53;;;;;;;4.75;3.28;;;;;;;16.35;66.08;99490.47;5256803;28;20058;-71
2022/09/05 03:12:38;;;;;;;6.60;3.60;;;;;;;16.53;65.90;99496.50;5258268;28;20040;-73
2022/09/05 03:15:59;;;;;;;4.45;3.40;;;;;;;16.31;66.43;99506.03;5217547;28;20107;-72
2022/09/05 03:19:12;;;;;;;4.82;3.58;;;;;;;16.16;65.99;99505.88;5219909;28;20068;-75
2022/09/05 03:22:12;;;;;;;4.75;3.58;;;;;;;16.09;66.45;99506.69;5261629;28;20488;-72
2022/09/05 03:25:32;;;;;;;4.60;3.50;;;;;;;16.15;66.73;99512.22;5262546;28;20055;-71
2022/09/05 03:28:39;;;;;;;5.40;3.45;;;;;;;16.16;66.99;99500.53;5264483;28;20445;-73
2022/09/05 03:31:55;;;;;;;5.78;3.58;;;;;;;16.23;67.54;99486.50;5261879;28;20170;-72
2022/09/05 03:34:45;;;;;;;5.43;2.88;;;;;;;16.26;66.81;99495.03;5258064;28;20051;-72
2022/09/05 03:38:00;;;;;;;5.20;3.70;;;;;;;16.25;66.40;99496.00;5264472;28;20595;-72
2022/09/05 03:41:09;;;;;;;7.68;3.42;;;;;;;16.20;66.67;99495.69;5264179;28;20063;-71
2022/09/05 03:44:17;;;;;;;4.57;3.50;;;;;;;16.12;67.27;99501.03;5260867;28;20060;-71
2022/09/05 03:47:34;;;;;;;5.82;3.72;;;;;;;16.12;67.19;99503.69;5260290;28;20048;-73
2022/09/05 03:50:34;;;;;;;7.28;3.92;;;;;;;15.96;67.82;99494.69;5230702;28;20121;-72
2022/09/05 03:54:10;;;;;;;10.63;4.00;;;;;;;16.27;67.82;99499.34;5261829;28;20048;-72
2022/09/05 03:57:43;;;;;;;6.70;4.65;;;;;;;16.30;68.21;99503.53;5264412;28;20513;-72
2022/09/05 04:00:35;;;;;;;5.20;3.90;;;;;;;16.24;66.58;99507.72;5266721;28;20075;-72
2022/09/05 04:03:37;;;;;;;5.93;4.20;;;;;;;15.96;67.11;99505.38;5258742;28;20121;-71
2022/09/05 04:06:59;;;;;;;6.00;4.10;;;;;;;15.98;68.40;99498.00;5268715;28;20058;-72
2022/09/05 04:10:26;;;;;;;5.40;3.92;;;;;;;16.00;67.23;99499.69;5264605;28;20116;-72
2022/09/05 04:13:23;;;;;;;7.05;4.25;;;;;;;15.91;68.31;99497.00;5251467;28;20056;-72
2022/09/05 04:16:19;;;;;;;4.40;3.45;;;;;;;15.89;67.11;99503.50;5269658;28;20051;-72
2022/09/05 04:19:25;;;;;;;9.10;4.00;;;;;;;15.87;68.09;99500.19;5250273;28;20513;-72
2022/09/05 04:22:49;;;;;;;6.95;4.20;;;;;;;15.81;68.25;99500.84;5267976;28;20153;-72
2022/09/05 04:25:53;;;;;;;5.78;3.90;;;;;;;15.74;68.07;99496.16;5268773;28;20060;-72
2022/09/05 04:29:07;;;;;;;6.00;3.80;;;;;;;15.95;67.29;99503.69;5263768;28;20082;-72
2022/09/05 04:32:27;;;;;;;4.25;3.63;;;;;;;16.04;67.17;99511.72;5269135;28;20047;-72
2022/09/05 04:35:29;;;;;;;7.88;4.30;;;;;;;15.90;67.92;99515.91;5265634;28;20410;-72
2022/09/05 04:38:41;;;;;;;6.18;3.92;;;;;;;15.87;67.71;99517.06;5266318;28;20052;-72
2022/09/05 04:41:37;;;;;;;5.75;4.18;;;;;;;15.75;67.65;99523.72;5265695;28;20154;-72
2022/09/05 04:44:32;;;;;;;4.70;3.40;;;;;;;15.77;67.80;99511.03;5266344;28;20078;-72
2022/09/05 04:47:29;;;;;;;5.00;4.38;;;;;;;15.92;68.47;99514.72;5272103;28;20044;-72
2022/09/05 04:50:23;;;;;;;5.78;4.10;;;;;;;15.91;68.15;99502.34;5271186;28;20418;-72
2022/09/05 04:53:32;;;;;;;12.93;4.20;;;;;;;16.14;68.62;99513.25;5266696;28;20137;-71
2022/09/05 04:56:31;;;;;;;7.40;4.50;;;;;;;16.20;69.21;99517.09;5276222;28;20063;-72
2022/09/05 04:59:32;;;;;;;6.72;4.10;;;;;;;16.27;67.92;99511.91;5269243;28;20509;-71
2022/09/05 05:02:46;;;;;;;5.63;4.13;;;;;;;16.39;67.86;99526.59;5251589;28;20510;-70
2022/09/05 05:06:05;;;;;;;7.75;4.30;;;;;;;16.53;67.92;99530.47;5266953;28;20105;-71
2022/09/05 05:09:21;;;;;;;5.80;4.53;;;;;;;16.52;67.89;99532.28;5262144;28;20040;-72
2022/09/05 05:12:26;;;;;;;6.78;4.38;;;;;;;16.85;65.93;99533.13;5261449;28;20108;-71
2022/09/05 05:15:46;;;;;;;6.38;4.53;;;;;;;16.63;66.98;99533.78;5264053;28;20169;-72
2022/09/05 05:19:20;;;;;;;5.80;4.32;;;;;;;16.63;66.94;99523.91;5264080;28;20071;-71
2022/09/05 05:22:16;;;;;;;;;;;;;;;16.57;67.75;99537.16;5260580;28;20044;-71
2022/09/05 05:25:10;;;;;;;;;;;;;;;16.65;67.21;99545.16;5261745;28;19964;-71
2022/09/05 05:28:20;;;;;;;8.10;4.30;;;;;;;16.97;67.27;99540.78;5269195;28;19959;-69
2022/09/05 05:31:22;;;;;;;10.30;5.10;;;;;;;17.11;66.74;99545.41;5265140;28;20097;-70
2022/09/05 05:34:40;;;;;;;9.82;4.75;;;;;;;17.23;66.92;99552.09;5262693;28;20056;-70
2022/09/05 05:37:36;;;;;;;7.53;4.63;;;;;;;16.99;67.44;99546.81;5264299;28;20101;-69
2022/09/05 05:40:30;;;;;;;8.02;4.80;;;;;;;17.17;66.73;99550.09;5255278;28;20079;-69
2022/09/05 05:43:35;;;;;;;5.30;4.25;;;;;;;17.08;66.82;99527.00;5264244;28;20105;-70
2022/09/05 05:46:30;;;;;;;5.15;3.90;;;;;;;17.36;66.27;99543.50;5264516;28;20094;-71
2022/09/05 05:49:30;;;;;;;5.70;4.07;;;;;;;17.21;66.75;99545.22;5265734;28;20125;-70
2022/09/05 05:52:38;;;;;;;10.00;3.83;;;;;;;17.40;65.91;99554.72;5261274;28;20047;-71
2022/09/05 05:55:46;;;;;;;6.22;3.47;;;;;;;17.35;65.93;99561.44;5264455;28;20094;-71
2022/09/05 05:58:51;;;;;;;7.38;3.78;;;;;;;17.27;65.71;99568.66;5267127;28;20051;-70
2022/09/05 06:01:53;;;;;;;5.50;3.83;;;;;;;17.40;65.87;99574.31;5263187;28;20478;-71
2022/09/05 06:05:15;;;;;;;8.15;4.10;;;;;;;17.55;65.45;99555.66;5264512;28;20092;-70
2022/09/05 06:08:08;;;;;;;5.30;3.70;;;;;;;17.54;64.92;99570.06;5261577;28;20052;-68
2022/09/05 06:12:05;;;;;;;8.23;4.00;;;;;;;17.67;65.36;99566.81;5269287;28;20055;-69
2022/09/05 06:15:34;;;;;;;5.28;3.58;;;;;;;17.71;65.10;99566.28;5264468;28;20063;-69
2022/09/05 06:19:22;;;;;;;7.13;3.88;;;;;;;17.79;64.45;99562.75;5269543;28;20048;-68
2022/09/05 06:22:54;;;;;;;8.32;4.05;;;;;;;17.91;64.53;99564.00;5159520;28;20076;-69
2022/09/05 06:26:13;;;;;;;11.13;4.03;;;;;;;17.93;64.67;99575.41;5189924;28;20044;-70
2022/09/05 06:29:24;;;;;;;5.18;4.07;;;;;;;18.06;64.78;99572.97;5257121;28;20067;-71
2022/09/05 06:32:43;;;;;;;7.53;3.40;;;;;;;18.17;64.05;99565.53;5252501;28;20096;-70
2022/09/05 06:36:06;;;;;;;8.98;3.97;;;;;;;18.39;63.37;99569.22;5258674;28;20055;-69
2022/09/05 06:39:12;;;;;;;4.30;3.58;;;;;;;18.42;64.03;99568.88;5260594;28;20132;-73
2022/09/05 06:42:18;;;;;;;8.18;4.80;;;;;;;18.57;64.18;99569.72;5251290;28;20083;-73
2022/09/05 06:45:57;;;;;;;8.20;3.90;;;;;;;18.68;63.54;99574.69;5258037;28;20102;-71
2022/09/05 06:49:00;;;;;;;5.25;3.97;;;;;;;18.94;63.73;99574.31;5263327;28;20051;-70
2022/09/05 06:52:10;;;;;;;9.38;4.32;;;;;;;19.15;63.13;99578.09;5258392;28;20524;-72
2022/09/05 06:55:40;;;;;;;8.23;4.18;;;;;;;19.29;62.56;99587.19;5257098;28;20531;-71
2022/09/05 06:58:52;;;;;;;7.10;4.22;;;;;;;19.64;62.13;99575.69;5259736;28;20556;-72
2022/09/05 07:01:55;;;;;;;6.57;4.13;;;;;;;19.67;61.68;99579.88;5260835;28;20056;-73
2022/09/05 07:05:08;;;;;;;11.20;4.60;;;;;;;20.04;60.48;99584.22;5260586;28;20200;-71
2022/09/05 07:08:46;;;;;;;7.20;4.35;;;;;;;20.05;60.51;99580.50;5267150;28;20417;-71
2022/09/05 07:12:00;;;;;;;11.65;4.32;;;;;;;20.71;59.52;99576.81;5261954;28;20437;-69
2022/09/05 07:15:13;;;;;;;9.55;4.00;;;;;;;21.02;58.17;99579.09;5250761;28;20058;-73
2022/09/05 07:18:23;;;;;;;4.78;3.78;;;;;;;21.44;57.28;99577.31;5260806;28;20604;-72
2022/09/05 07:21:36;;;;;;;8.95;4.43;;;;;;;21.79;56.91;99578.09;5264929;28;20105;-73
2022/09/05 07:24:31;;;;;;;5.22;3.50;;;;;;;22.71;54.58;99569.34;5264771;28;20087;-73
2022/09/05 07:27:54;;;;;;;;;;;;;;;24.12;50.27;99576.00;5261106;28;20044;-70
2022/09/05 07:31:15;;;;;;;5.50;3.25;;;;;;;25.13;47.70;99579.63;5261472;28;19924;-72
2022/09/05 07:34:31;;;;;;;5.90;3.63;;;;;;;26.11;46.60;99584.13;5262085;28;20047;-72
2022/09/05 07:37:26;;;;;;;4.35;2.83;;;;;;;26.45;45.57;99555.38;5264635;28;20048;-72
2022/09/05 07:40:21;;;;;;;4.88;3.47;;;;;;;26.62;44.58;99571.84;5262601;28;20654;-72
2022/09/05 07:43:32;;;;;;;7.72;3.25;;;;;;;27.31;42.97;99561.25;5265316;28;20075;-73
2022/09/05 07:46:27;;;;;;;7.93;2.95;;;;;;;27.64;42.74;99564.13;5261646;28;20525;-73
2022/09/05 07:49:19;;;;;;;5.60;2.90;;;;;;;28.04;42.00;99566.00;5264803;28;20517;-71
2022/09/05 07:52:17;;;;;;;6.30;2.72;;;;;;;28.33;40.81;99549.63;5265587;28;20056;-71
2022/09/05 07:55:29;;;;;;;3.58;2.50;;;;;;;28.79;40.48;99561.31;5266715;28;20079;-70
2022/09/05 07:58:48;;;;;;;6.97;2.95;;;;;;;29.25;39.18;99571.03;5272805;28;20055;-71
2022/09/05 08:01:43;;;;;;;8.45;2.83;;;;;;;29.88;37.87;99557.91;5264452;28;20490;-72
2022/09/05 08:04:40;;;;;;;4.97;2.60;;;;;;;29.41;39.32;99547.50;5265515;28;20052;-73
2022/09/05 08:07:36;;;;;;;6.85;2.60;;;;;;;30.02;37.59;99573.91;5263615;28;20074;-73
2022/09/05 08:11:08;;;;;;;4.35;2.78;;;;;;;30.33;38.75;99575.91;5257033;28;20048;-72
2022/09/05 08:14:28;;;;;;;12.07;3.15;;;;;;;30.60;37.13;99567.66;5268051;28;20051;-74
2022/09/05 08:17:59;;;;;;;3.47;2.30;;;;;;;30.91;36.57;99569.81;5268639;28;20054;-71
2022/09/05 08:21:09;;;;;;;2.65;2.05;;;;;;;30.80;35.97;99564.28;5267097;28;20483;-70
2022/09/05 08:24:11;;;;;;;7.93;2.30;;;;;;;30.68;37.17;99560.84;5264986;28;20059;-69
2022/09/05 08:27:28;;;;;;;3.13;2.30;;;;;;;30.66;37.46;99557.53;5244954;28;20052;-70
2022/09/05 08:30:18;;;;;;;4.60;2.08;;;;;;;31.54;35.41;99554.28;5264720;28;20119;-70
2022/09/05 08:33:23;;;;;;;4.78;2.20;;;;;;;31.87;33.80;99542.06;5257507;28;20058;-71
2022/09/05 08:36:22;;;;;;;7.03;2.13;;;;;;;31.65;35.00;99560.63;5262834;28;20130;-71
2022/09/05 08:39:18;;;;;;;4.80;2.70;;;;;;;31.91;34.57;99550.59;5267568;28;20063;-70
2022/09/05 08:42:29;;;;;;;4.05;2.47;;;;;;;32.25;34.01;99549.03;5266097;28;20052;-70
2022/09/05 08:45:25;;;;;;;4.45;2.90;;;;;;;32.40;32.83;99541.91;5272076;28;20040;-71
2022/09/05 08:49:13;;;;;;;5.30;2.17;;;;;;;32.12;34.02;99552.31;5257006;28;20090;-70
2022/09/05 08:52:13;;;;;;;6.75;2.42;;;;;;;31.38;34.19;99545.19;5256615;28;20592;-71
2022/09/05 08:55:27;;;;;;;4.40;1.92;;;;;;;31.67;34.04;99540.09;5257170;28;20125;-71
2022/09/05 08:58:43;;;;;;;6.03;2.03;;;;;;;32.67;34.80;99539.72;5262509;28;20062;-70
2022/09/05 09:01:45;;;;;;;2.58;2.08;;;;;;;32.78;32.66;99506.75;5260000;28;20043;-72
2022/09/05 09:05:06;;;;;;;4.13;1.92;;;;;;;33.21;32.20;99541.00;5260615;28;20079;-71
2022/09/05 09:08:15;;;;;;;2.83;1.95;;;;;;;33.16;31.91;99532.78;5264304;28;20058;-71
2022/09/05 09:11:18;;;;;;;3.17;1.92;;;;;;;32.82;31.59;99521.59;5264067;28;20052;-71
2022/09/05 09:15:06;;;;;;;4.63;1.80;;;;;;;33.19;30.75;99508.31;5256074;28;20097;-70
2022/09/05 09:17:57;;;;;;;3.75;1.90;;;;;;;32.76;32.75;99531.75;5215118;28;20496;-72
2022/09/05 09:20:57;;;;;;;3.15;1.63;;;;;;;33.13;30.88;99531.41;5212882;28;20598;-72
2022/09/05 09:24:05;;;;;;;3.47;1.60;;;;;;;33.47;31.77;99529.91;5261326;28;20055;-74
2022/09/05 09:27:00;;;;;;;3.45;1.75;;;;;;;33.65;31.43;99529.31;5262396;28;20189;-70
2022/09/05 09:29:57;;;;;;;2.00;1.50;;;;;;;34.08;31.22;99515.88;5262239;28;20044;-71
2022/09/05 09:32:49;;;;;;;4.90;1.70;;;;;;;34.04;29.49;99509.28;5260442;28;20237;-72
2022/09/05 09:35:54;;;;;;;4.07;1.55;;;;;;;34.22;30.23;99518.78;5257008;28;20059;-71
2022/09/05 09:39:26;;;;;;;3.17;1.45;;;;;;;34.48;30.38;99511.97;5260217;28;20256;-71
2022/09/05 09:42:50;;;;;;;6.40;1.67;;;;;;;34.97;28.42;99512.91;5259593;28;20056;-72
2022/09/05 09:46:02;;;;;;;2.90;1.58;;;;;;;33.38;30.88;99511.28;5264875;28;20063;-71
2022/09/05 09:49:23;;;;;;;2.25;1.50;;;;;;;34.22;29.79;99510.53;5262347;28;20046;-72
2022/09/05 09:52:51;;;;;;;1.98;1.40;;;;;;;33.82;31.48;99504.19;5260640;28;20500;-72
2022/09/05 09:56:13;;;;;;;4.78;1.63;;;;;;;33.61;30.88;99501.56;5249673;28;20055;-72
2022/09/05 09:59:31;;;;;;;3.95;1.55;;;;;;;34.20;29.74;99496.22;5256654;28;20510;-73
2022/09/05 10:03:00;;;;;;;3.05;1.45;;;;;;;34.89;27.81;99497.00;5259475;28;20055;-71
2022/09/05 10:06:55;;;;;;;1.38;1.27;;;;;;;34.93;29.18;99501.63;5233182;28;20059;-72
2022/09/05 10:10:27;;;;;;;6.53;1.67;;;;;;;35.22;29.74;99500.78;5255950;28;20144;-71
2022/09/05 10:13:51;;;;;;;6.68;1.63;;;;;;;34.42;30.56;99488.34;5261523;28;20080;-71
2022/09/05 10:17:15;;;;;;;6.05;1.60;;;;;;;35.41;28.79;99490.59;5264334;28;20040;-72
2022/09/05 10:20:18;;;;;;;5.55;1.42;;;;;;;35.40;29.90;99480.69;5255555;28;20500;-72
2022/09/05 10:23:34;;;;;;;1.50;1.38;;;;;;;35.46;27.79;99484.19;5260363;28;20132;-74
2022/09/05 10:26:51;;;;;;;2.00;1.63;;;;;;;34.74;28.60;99490.53;5238778;28;20063;-70
2022/09/05 10:30:00;;;;;;;3.90;1.65;;;;;;;35.36;27.44;99478.81;5264444;28;20043;-70
2022/09/05 10:33:18;;;;;;;5.18;1.80;;;;;;;34.69;27.81;99476.00;5258689;28;20054;-70
2022/09/05 10:36:30;;;;;;;1.88;1.20;;;;;;;34.30;28.45;99474.94;5262339;28;20044;-69
2022/09/05 10:39:26;;;;;;;1.75;1.63;;;;;;;34.73;29.34;99479.81;5263113;28;20044;-69
2022/09/05 10:42:36;;;;;;;7.45;1.67;;;;;;;34.57;27.67;99466.22;5256099;28;20534;-70
2022/09/05 10:45:59;;;;;;;1.30;1.20;;;;;;;34.06;28.29;99465.81;5279046;28;20180;-70
2022/09/05 10:48:57;;;;;;;3.25;1.50;;;;;;;34.12;27.63;99457.22;5267256;28;20051;-71
2022/09/05 10:51:59;;;;;;;6.63;1.70;;;;;;;33.35;29.24;99442.31;5281421;28;20047;-70
2022/09/05 10:55:25;;;;;;;2.17;1.70;;;;;;;33.69;29.49;99442.38;5264006;28;20055;-69
2022/09/05 10:58:28;;;;;;;1.80;1.45;;;;;;;33.26;29.70;99424.75;5261179;28;20067;-69
2022/09/05 11:01:45;;;;;;;5.22;1.60;;;;;;;33.25;29.21;99425.88;5249197;28;20048;-69
2022/09/05 11:05:20;;;;;;;2.05;1.33;;;;;;;33.41;27.54;99424.66;5258668;28;20071;-69
2022/09/05 11:08:27;;;;;;;2.00;1.33;;;;;;;32.99;29.32;99428.72;5256460;28;20090;-69
2022/09/05 11:11:18;;;;;;;1.80;1.50;;;;;;;33.08;29.70;99426.19;5260157;28;20686;-68
2022/09/05 11:14:50;;;;;;;3.08;1.48;;;;;;;33.28;26.47;99426.13;5256316;28;20048;-68
2022/09/05 11:17:53;;;;;;;2.88;1.30;;;;;;;33.37;26.94;99418.09;5259852;28;20642;-69
2022/09/05 11:21:09;;;;;;;2.47;1.40;;;;;;;33.67;25.63;99411.59;5255030;28;20525;-69
2022/09/05 11:24:10;;;;;;;8.27;1.60;;;;;;;33.08;27.50;99406.97;5259762;28;20052;-70
2022/09/05 11:27:24;;;;;;;4.82;1.40;;;;;;;33.47;27.44;99415.28;5260625;28;20055;-70
2022/09/05 11:30:17;;;;;;;;;;;;;;;33.85;26.94;99412.84;5263772;28;20118;-70
2022/09/05 11:33:34;;;;;;;1.98;1.30;;;;;;;34.02;25.16;99413.28;5245919;28;19943;-71
2022/09/05 11:36:49;;;;;;;3.15;1.00;;;;;;;33.93;24.64;99412.22;5253043;28;20717;-70
2022/09/05 11:40:23;;;;;;;1.30;1.20;;;;;;;33.30;25.72;99407.41;5256271;28;20068;-71
2022/09/05 11:44:16;;;;;;;1.67;1.10;;;;;;;33.22;26.14;99397.84;5257079;28;20040;-70
2022/09/05 11:47:54;;;;;;;1.85;1.27;;;;;;;32.50;25.10;99410.16;5263723;28;20093;-71
2022/09/05 11:51:22;;;;;;;2.58;1.20;;;;;;;32.69;25.28;99402.16;5263983;28;20418;-70
2022/09/05 11:55:07;;;;;;;5.15;1.45;;;;;;;32.57;27.25;99386.00;5257412;28;20484;-71
2022/09/05 11:58:33;;;;;;;3.20;1.30;;;;;;;32.77;27.01;99403.50;5258020;28;20059;-71
2022/09/05 12:02:03;;;;;;;2.85;1.85;;;;;;;32.24;26.86;99396.44;5258251;28;20073;-70
2022/09/05 12:05:32;;;;;;;1.30;1.17;;;;;;;32.69;27.70;99393.94;5260028;28;20063;-70
2022/09/05 12:09:00;;;;;;;2.53;1.50;;;;;;;32.79;26.77;99385.66;5257736;28;20048;-71
2022/09/05 12:12:08;;;;;;;1.45;1.25;;;;;;;32.58;27.11;99390.38;5263011;28;20608;-70
2022/09/05 12:15:32;;;;;;;3.03;1.67;;;;;;;32.33;27.86;99384.94;5261153;28;20054;-70
2022/09/05 12:18:43;;;;;;;1.70;1.50;;;;;;;32.40;27.52;99385.47;5262337;28;20668;-70
2022/09/05 12:21:58;;;;;;;5.65;1.42;;;;;;;32.35;27.11;99380.81;5262389;28;20043;-71
2022/09/05 12:25:22;;;;;;;2.30;1.30;;;;;;;31.85;27.16;99374.22;5262063;28;20490;-70
2022/09/05 12:28:40;;;;;;;2.27;1.50;;;;;;;32.29;26.84;99370.94;5262453;28;20533;-70
2022/09/05 12:31:57;;;;;;;2.75;1.40;;;;;;;32.18;26.25;99378.34;5267961;28;20040;-70
2022/09/05 12:35:07;;;;;;;2.05;1.75;;;;;;;32.16;26.77;99358.63;5259937;28;20131;-72
2022/09/05 12:38:25;;;;;;;2.53;1.38;;;;;;;31.76;25.83;99363.00;5261844;28;20181;-69
2022/09/05 12:41:43;;;;;;;2.25;1.50;;;;;;;31.73;27.64;99354.50;5265263;28;20048;-70
2022/09/05 12:45:08;;;;;;;1.95;1.30;;;;;;;31.37;25.33;99353.66;5263724;28;20044;-71
2022/09/05 12:48:12;;;;;;;5.00;1.50;;;;;;;31.31;25.12;99355.53;5261291;28;20056;-72
2022/09/05 12:51:06;;;;;;;1.63;1.20;;;;;;;31.36;26.37;99347.38;5260088;28;20058;-71
2022/09/05 12:54:00;;;;;;;5.37;1.20;;;;;;;31.47;26.43;99348.19;5260131;28;20449;-71
2022/09/05 12:57:09;;;;;;;3.25;1.40;;;;;;;31.94;26.45;99344.38;5243812;28;20441;-71
2022/09/05 13:00:21;;;;;;;4.07;1.13;;;;;;;31.55;26.82;99328.44;5259246;28;20090;-71
2022/09/05 13:03:36;;;;;;;2.53;1.40;;;;;;;32.03;25.57;99340.00;5234078;28;20886;-70
2022/09/05 13:06:54;;;;;;;1.98;1.40;;;;;;;31.60;25.97;99325.72;5260011;28;20052;-71
2022/09/05 13:09:55;;;;;;;3.72;1.38;;;;;;;31.53;25.59;99328.75;5265227;28;20128;-70
2022/09/05 13:13:22;;;;;;;1.52;1.20;;;;;;;31.59;25.27;99326.84;5256192;28;20113;-69
2022/09/05 13:16:38;;;;;;;1.35;1.20;;;;;;;31.43;26.18;99320.50;5239813;28;20413;-69
2022/09/05 13:19:44;;;;;;;2.33;1.30;;;;;;;31.64;26.06;99315.84;5261426;28;20528;-70
2022/09/05 13:22:37;;;;;;;3.38;1.35;;;;;;;31.64;25.37;99293.91;5257596;28;20097;-69
2022/09/05 13:25:42;;;;;;;1.30;1.17;;;;;;;31.44;26.10;99310.38;5261406;28;20126;-70
2022/09/05 13:28:50;;;;;;;1.90;1.27;;;;;;;31.35;26.09;99304.59;5260761;28;20055;-70
2022/09/05 13:32:03;;;;;;;1.30;1.20;;;;;;;31.54;25.90;99308.44;5261138;28;20571;-70
2022/09/05 13:35:21;;;;;;;3.95;1.27;;;;;;;31.75;26.35;99300.22;5261359;28;20051;-70
2022/09/05 13:38:58;;;;;;;2.47;1.40;;;;;;;31.64;26.74;99296.66;5260702;28;20433;-71
2022/09/05 13:42:00;;;;;;;2.42;1.50;;;;;;;31.02;26.66;99300.41;5258994;28;20117;-71
2022/09/05 13:44:55;;;;;;;3.40;1.45;;;;;;;31.03;27.88;99277.44;5257866;28;20056;-71
2022/09/05 13:48:21;;;;;;;1.70;1.50;;;;;;;31.16;26.93;99307.03;5258975;28;20143;-71
2022/09/05 13:51:35;;;;;;;1.40;1.30;;;;;;;31.03;26.43;99289.19;5256838;28;20058;-71
2022/09/05 13:54:32;;;;;;;1.50;1.27;;;;;;;30.94;27.37;99285.34;5261136;28;20101;-70
2022/09/05 13:57:52;;;;;;;3.92;1.77;;;;;;;30.80;27.91;99274.09;5261919;28;21645;-71
2022/09/05 14:01:21;;;;;;;6.15;2.40;;;;;;;31.04;28.11;99285.34;5254525;28;20063;-72
2022/09/05 14:04:51;;;;;;;1.42;1.33;;;;;;;30.87;27.71;99282.88;5256205;28;20113;-72
2022/09/05 14:08:23;;;;;;;2.70;1.58;;;;;;;30.23;27.90;99279.56;5251680;28;20090;-71
2022/09/05 14:11:42;;;;;;;1.75;1.20;;;;;;;30.60;28.83;99280.28;5260203;28;20079;-72
2022/09/05 14:14:49;;;;;;;1.92;1.25;;;;;;;30.36;29.52;99268.97;5261911;28;20097;-70
2022/09/05 14:18:14;;;;;;;1.88;1.25;;;;;;;30.33;28.96;99260.47;5259651;28;20245;-69
2022/09/05 14:21:15;;;;;;;4.57;1.27;;;;;;;30.51;28.87;99270.94;5262491;28;20078;-70
2022/09/05 14:24:13;;;;;;;1.80;1.60;;;;;;;30.46;29.03;99270.09;5263060;28;20072;-70
2022/09/05 14:27:18;;;;;;;4.53;1.42;;;;;;;30.37;28.44;99262.41;5262446;28;20056;-70
2022/09/05 14:30:45;;;;;;;1.50;1.40;;;;;;;30.56;28.24;99262.78;5261257;28;20148;-70
2022/09/05 14:34:17;;;;;;;1.60;1.30;;;;;;;30.58;28.99;99260.56;5260528;28;20043;-70
2022/09/05 14:37:47;;;;;;;4.78;1.90;;;;;;;30.86;28.34;99256.59;5259384;28;20067;-70
2022/09/05 14:41:27;;;;;;;2.88;1.50;;;;;;;30.99;28.23;99254.41;5259832;28;20503;-70
2022/09/05 14:44:47;;;;;;;2.60;1.70;;;;;;;30.72;28.24;99258.16;5259242;28;20268;-69
2022/09/05 14:48:03;;;;;;;4.95;1.55;;;;;;;30.47;28.38;99247.13;5260422;28;20054;-69
2022/09/05 14:51:02;;;;;;;2.13;1.38;;;;;;;30.81;28.30;99253.81;5256651;28;20410;-69
2022/09/05 14:53:52;;;;;;;1.30;1.20;;;;;;;30.71;29.01;99248.28;5257358;28;20436;-70
2022/09/05 14:56:56;;;;;;;3.85;1.58;;;;;;;30.89;28.04;99247.84;5263301;28;20532;-70
2022/09/05 15:00:13;;;;;;;1.50;1.40;;;;;;;30.82;28.24;99249.16;5262722;28;20051;-69
2022/09/05 15:03:36;;;;;;;1.65;1.40;;;;;;;30.84;27.54;99242.34;5269613;28;20036;-70
2022/09/05 15:07:20;;;;;;;3.15;1.38;;;;;;;30.88;28.93;99240.69;5259418;28;20049;-69
2022/09/05 15:10:16;;;;;;;1.48;1.35;;;;;;;30.69;27.47;99235.97;5261119;28;20104;-70
2022/09/05 15:13:26;;;;;;;3.20;1.58;;;;;;;30.85;28.82;99227.53;5256048;28;20070;-69